Terminal Aerodrome Forecast
Issued by NWS Pittsburgh, PA

Current Version | Previous Version | Graphics & Text | Print | Product List | Glossary On
Versions: 1 2 3 4 5 6 7 8 9 10 11 12 13 14 15 16 17 18 19 20 21 22 23 24 25
000
FTUS41 KPBZ 191724
TAFPIT
TAF
KPIT 191724Z 1918/2024 23007KT P6SM SCT050
     FM200000 31004KT P6SM SCT200
     FM200700 00000KT 5SM BR SCT200
     FM201300 24003KT P6SM SCT120
     FM202100 25006KT P6SM VCTS BKN050CB=

USA.gov is the U.S. government's official web portal to all federal, state and local government web resources and services.